Time;durP1;ratioP1;P1;durP2;ratioP2;P2;SDS_P1;SDS_P2;PMS_P1;PMS_P2;Temp;Humidity;BMP_temperature;BMP_pressure;BME280_temperature;BME280_humidity;BME280_pressure;Samples;Min_cycle;Max_cycle;Signal;HPM_P1;HPM_P2
2023/01/29 00:00:09;;;;;;;14.25;6.28;;;3.90;91.10;;;;;;5032322;28;20155;-44
2023/01/29 00:02:35;;;;;;;11.13;5.97;;;3.90;91.10;;;;;;5029756;28;20670;-44
2023/01/29 00:05:05;;;;;;;11.57;7.07;;;3.90;91.00;;;;;;5030362;28;20610;-46
2023/01/29 00:07:32;;;;;;;10.10;7.13;;;3.90;91.00;;;;;;5032739;28;20136;-44
2023/01/29 00:10:02;;;;;;;10.70;7.05;;;3.90;91.00;;;;;;5031775;28;20057;-44
2023/01/29 00:12:29;;;;;;;10.75;6.93;;;3.90;90.90;;;;;;5031682;28;20443;-44
2023/01/29 00:14:56;;;;;;;9.45;6.38;;;3.90;91.00;;;;;;5032212;28;20530;-44
2023/01/29 00:17:22;;;;;;;9.57;6.53;;;3.90;91.00;;;;;;5032701;28;20026;-45
2023/01/29 00:19:49;;;;;;;11.45;6.60;;;3.90;91.00;;;;;;5018943;28;20026;-47
2023/01/29 00:22:15;;;;;;;9.48;5.80;;;3.90;91.00;;;;;;5013134;28;20084;-44
2023/01/29 00:24:43;;;;;;;9.55;7.03;;;3.90;91.00;;;;;;5023941;28;20046;-45
2023/01/29 00:27:10;;;;;;;11.50;6.30;;;3.90;91.00;;;;;;5043964;28;20029;-46
2023/01/29 00:29:35;;;;;;;13.20;7.20;;;3.90;91.00;;;;;;5031903;28;20040;-46
2023/01/29 00:32:01;;;;;;;8.93;6.55;;;3.90;91.20;;;;;;5026875;28;20037;-47
2023/01/29 00:34:28;;;;;;;9.93;6.40;;;3.90;91.30;;;;;;5033130;28;20041;-49
2023/01/29 00:37:03;;;;;;;12.45;6.82;;;3.90;91.40;;;;;;5018588;28;20058;-46
2023/01/29 00:39:37;;;;;;;8.82;6.72;;;3.90;91.60;;;;;;5019146;28;20018;-49
2023/01/29 00:44:58;;;;;;;9.65;5.70;;;3.90;91.60;;;;;;5031891;28;20098;-44
2023/01/29 00:47:32;;;;;;;10.57;6.60;;;3.90;91.70;;;;;;5018912;28;20044;-47
2023/01/29 00:50:03;;;;;;;9.95;6.15;;;3.90;91.70;;;;;;5016924;28;20038;-44
2023/01/29 00:52:30;;;;;;;9.50;6.55;;;3.90;91.60;;;;;;5017605;28;20037;-49
2023/01/29 00:55:02;;;;;;;8.57;5.97;;;3.90;91.70;;;;;;5033117;28;20056;-49
2023/01/29 00:57:29;;;;;;;10.98;6.43;;;3.80;91.60;;;;;;5005969;28;20113;-49
2023/01/29 01:00:00;;;;;;;14.73;6.80;;;3.80;91.60;;;;;;5019498;28;20088;-44
2023/01/29 01:05:22;;;;;;;9.35;6.25;;;3.80;91.60;;;;;;5018817;28;20057;-46
2023/01/29 01:07:50;;;;;;;12.57;7.57;;;3.80;91.60;;;;;;5011720;28;20036;-46
2023/01/29 01:10:23;;;;;;;13.95;7.22;;;3.80;91.50;;;;;;5016527;28;20189;-44
2023/01/29 01:13:02;;;;;;;9.32;5.70;;;3.80;91.50;;;;;;5020372;28;20034;-44
2023/01/29 01:15:34;;;;;;;10.90;6.77;;;3.80;91.40;;;;;;4995895;28;20813;-44
2023/01/29 01:18:01;;;;;;;10.68;6.70;;;3.80;91.40;;;;;;5011388;28;20034;-44
2023/01/29 01:20:32;;;;;;;13.93;5.57;;;3.80;91.50;;;;;;5012686;28;20360;-45
2023/01/29 01:22:59;;;;;;;8.90;6.20;;;3.80;91.50;;;;;;5023190;28;20090;-49
2023/01/29 01:25:27;;;;;;;10.52;6.63;;;3.80;91.40;;;;;;5033563;28;20071;-46
2023/01/29 01:27:59;;;;;;;7.53;5.93;;;3.80;91.30;;;;;;5021063;28;20062;-45
2023/01/29 01:30:26;;;;;;;9.10;5.90;;;3.80;91.10;;;;;;5015674;28;20099;-44
2023/01/29 01:32:52;;;;;;;12.85;5.97;;;3.70;91.10;;;;;;5016748;28;20088;-45
2023/01/29 01:35:19;;;;;;;12.98;6.18;;;3.70;91.10;;;;;;4998966;28;20526;-46
2023/01/29 01:37:46;;;;;;;9.95;5.93;;;3.70;91.20;;;;;;5015294;28;20034;-46
2023/01/29 01:40:18;;;;;;;11.52;6.60;;;3.70;91.20;;;;;;4999630;28;20641;-45
2023/01/29 01:42:46;;;;;;;10.15;6.35;;;3.70;91.30;;;;;;5049533;28;20078;-46
2023/01/29 01:45:48;;;;;;;9.52;7.28;;;3.70;91.20;;;;;;5017207;28;20037;-46
2023/01/29 01:48:23;;;;;;;7.90;5.65;;;3.70;91.10;;;;;;5051010;28;20065;-47
2023/01/29 01:51:23;;;;;;;8.77;6.45;;;3.70;91.20;;;;;;5037235;28;20049;-44
2023/01/29 01:54:17;;;;;;;8.13;6.30;;;3.70;91.10;;;;;;5039848;28;20045;-44
2023/01/29 01:57:08;;;;;;;9.95;6.22;;;3.70;91.20;;;;;;5048257;28;20044;-44
2023/01/29 01:59:39;;;;;;;11.85;6.57;;;3.70;91.20;;;;;;5051923;28;20032;-45
2023/01/29 02:10:41;;;;;;;11.38;7.55;;;3.40;90.90;;;;;;5040082;28;20123;-44
2023/01/29 02:13:09;;;;;;;9.82;6.93;;;3.40;90.90;;;;;;5016468;28;20048;-48
2023/01/29 02:15:40;;;;;;;10.57;6.63;;;3.30;91.00;;;;;;5033501;28;20100;-47
2023/01/29 02:18:09;;;;;;;10.10;7.15;;;3.30;91.10;;;;;;5033675;28;20029;-44
2023/01/29 02:20:40;;;;;;;11.57;7.38;;;3.20;91.20;;;;;;5016953;28;20033;-44
2023/01/29 02:23:25;;;;;;;9.88;7.40;;;3.20;91.20;;;;;;5014362;28;20133;-45
2023/01/29 02:26:29;;;;;;;11.75;7.32;;;3.10;91.20;;;;;;5019224;28;20045;-45
2023/01/29 02:29:26;;;;;;;9.02;6.40;;;3.10;91.30;;;;;;5015339;28;20658;-45
2023/01/29 02:32:24;;;;;;;8.07;6.25;;;3.10;91.30;;;;;;5015324;28;20072;-45
2023/01/29 02:35:26;;;;;;;10.63;7.05;;;3.00;91.40;;;;;;5014496;28;20025;-49
2023/01/29 02:37:56;;;;;;;9.52;6.43;;;3.00;91.50;;;;;;5014814;28;20096;-45
2023/01/29 02:40:43;;;;;;;9.73;7.05;;;3.00;91.50;;;;;;5020087;28;20073;-45
2023/01/29 02:43:26;;;;;;;9.15;6.80;;;2.90;91.50;;;;;;5027865;28;20413;-44
2023/01/29 02:46:29;;;;;;;11.20;6.85;;;2.90;91.50;;;;;;5033395;28;20076;-44
2023/01/29 02:49:09;;;;;;;11.73;7.15;;;2.90;91.60;;;;;;5015867;28;20084;-45
2023/01/29 02:51:53;;;;;;;9.77;6.35;;;2.90;91.60;;;;;;5024711;28;20432;-45
2023/01/29 02:54:26;;;;;;;10.32;6.30;;;2.90;91.70;;;;;;5002189;28;20052;-45
2023/01/29 02:57:02;;;;;;;11.48;7.47;;;2.90;91.80;;;;;;5001332;28;20026;-46
2023/01/29 02:59:39;;;;;;;13.20;7.38;;;2.90;92.00;;;;;;5013433;28;20034;-45
2023/01/29 03:02:12;;;;;;;9.23;6.88;;;2.90;91.90;;;;;;5013753;28;20033;-45
2023/01/29 03:04:48;;;;;;;11.65;7.15;;;2.90;91.90;;;;;;5014668;28;20057;-45
2023/01/29 03:07:40;;;;;;;11.52;7.47;;;3.00;92.00;;;;;;5022837;28;20046;-45
2023/01/29 03:10:33;;;;;;;12.40;7.78;;;3.00;91.90;;;;;;5025891;28;20042;-46
2023/01/29 03:13:12;;;;;;;11.55;7.18;;;3.00;91.90;;;;;;5022611;28;20033;-45
2023/01/29 03:15:45;;;;;;;10.52;7.07;;;3.10;91.80;;;;;;5028709;28;20022;-45
2023/01/29 03:18:26;;;;;;;9.82;6.63;;;3.00;91.70;;;;;;5014609;28;20029;-45
2023/01/29 03:32:21;;;;;;;10.35;5.68;;;3.00;91.60;;;;;;5029143;28;20049;-44
2023/01/29 03:34:57;;;;;;;10.18;6.45;;;3.00;91.50;;;;;;5013926;28;20098;-48
2023/01/29 03:37:33;;;;;;;10.73;7.03;;;2.90;91.50;;;;;;5017581;28;20037;-46
2023/01/29 03:40:03;;;;;;;9.15;6.20;;;3.00;91.40;;;;;;5004576;28;20093;-48
2023/01/29 03:42:48;;;;;;;10.20;6.05;;;3.00;91.40;;;;;;5031946;28;20332;-45
2023/01/29 03:45:37;;;;;;;8.02;5.68;;;3.00;91.30;;;;;;5031175;28;20674;-44
2023/01/29 03:48:43;;;;;;;10.40;6.75;;;2.90;91.30;;;;;;5029285;28;20038;-46
2023/01/29 03:51:28;;;;;;;9.60;5.93;;;2.90;91.30;;;;;;5028008;28;20045;-46
2023/01/29 03:54:27;;;;;;;10.43;6.32;;;2.90;91.40;;;;;;5029400;28;20045;-49
2023/01/29 03:57:31;;;;;;;10.57;6.72;;;2.90;91.40;;;;;;5026076;28;20399;-43
2023/01/29 04:00:21;;;;;;;10.88;7.65;;;3.00;91.50;;;;;;5030748;28;20024;-45
2023/01/29 04:03:28;;;;;;;11.15;7.57;;;3.10;91.70;;;;;;5029053;28;20029;-43
2023/01/29 04:06:10;;;;;;;12.13;7.93;;;3.20;91.70;;;;;;5032125;28;20033;-46
2023/01/29 04:08:49;;;;;;;10.60;7.40;;;3.30;91.70;;;;;;5032391;28;20033;-43
2023/01/29 04:11:19;;;;;;;10.55;7.45;;;3.30;91.70;;;;;;5026528;28;20049;-44
2023/01/29 04:13:46;;;;;;;12.88;8.00;;;3.40;91.70;;;;;;5027674;28;20367;-45
2023/01/29 04:16:36;;;;;;;12.20;8.05;;;3.40;91.60;;;;;;5032444;28;20030;-44
2023/01/29 04:19:04;;;;;;;9.35;7.10;;;3.40;91.60;;;;;;5031717;28;20038;-44
2023/01/29 04:21:33;;;;;;;12.27;6.25;;;3.40;91.50;;;;;;5024042;28;20025;-45
2023/01/29 04:24:00;;;;;;;10.93;7.73;;;3.50;91.50;;;;;;5012533;28;20030;-46
2023/01/29 04:26:55;;;;;;;10.25;8.07;;;3.40;91.40;;;;;;5029043;28;20322;-44
2023/01/29 04:29:28;;;;;;;12.32;8.27;;;3.50;91.40;;;;;;5016474;28;20072;-45
2023/01/29 04:32:12;;;;;;;10.60;6.75;;;3.50;91.40;;;;;;5026791;28;20320;-48
2023/01/29 04:35:23;;;;;;;11.20;7.57;;;3.50;91.40;;;;;;5030544;28;20021;-44
2023/01/29 04:38:11;;;;;;;11.30;8.20;;;3.60;91.40;;;;;;5021207;28;20061;-44
2023/01/29 04:40:58;;;;;;;13.02;8.38;;;3.60;91.20;;;;;;5029740;28;20029;-44
2023/01/29 04:43:29;;;;;;;12.10;8.25;;;3.60;91.30;;;;;;5027376;28;20034;-47
2023/01/29 04:46:44;;;;;;;11.05;8.15;;;3.70;91.20;;;;;;5029320;28;20072;-45
2023/01/29 04:49:51;;;;;;;11.30;7.75;;;3.70;91.10;;;;;;5028491;28;20045;-45
2023/01/29 04:52:43;;;;;;;11.35;8.30;;;3.70;91.20;;;;;;5041444;28;20033;-45
2023/01/29 04:55:40;;;;;;;13.52;9.07;;;3.70;91.00;;;;;;5030589;28;20018;-45
2023/01/29 04:58:14;;;;;;;13.48;9.90;;;3.70;91.10;;;;;;5024929;28;20083;-44
2023/01/29 05:00:47;;;;;;;14.43;10.05;;;3.70;91.30;;;;;;5027930;28;20022;-44
2023/01/29 05:03:15;;;;;;;25.38;11.65;;;3.70;91.40;;;;;;5011608;28;20034;-44
2023/01/29 05:05:46;;;;;;;15.57;10.68;;;3.70;91.50;;;;;;5013557;28;20143;-44
2023/01/29 05:08:17;;;;;;;17.55;11.75;;;3.70;91.50;;;;;;5026996;28;20025;-44
2023/01/29 05:10:47;;;;;;;17.23;11.23;;;3.70;91.60;;;;;;5009292;28;20050;-45
2023/01/29 05:13:16;;;;;;;18.92;13.38;;;3.70;91.70;;;;;;4995482;28;20356;-44
2023/01/29 05:16:03;;;;;;;19.90;13.20;;;3.80;91.70;;;;;;5023565;28;20049;-45
2023/01/29 05:18:31;;;;;;;16.50;12.13;;;3.70;91.70;;;;;;5027475;28;20088;-46
2023/01/29 05:21:04;;;;;;;21.88;15.63;;;3.70;91.70;;;;;;5011796;28;20368;-47
2023/01/29 05:23:29;;;;;;;19.60;13.18;;;3.70;91.80;;;;;;5013096;28;20711;-45
2023/01/29 05:25:56;;;;;;;20.83;13.98;;;3.70;91.70;;;;;;5012515;28;20088;-46
2023/01/29 05:28:28;;;;;;;19.80;13.35;;;3.70;91.70;;;;;;5020014;28;20129;-45
2023/01/29 05:30:55;;;;;;;19.80;13.57;;;3.60;91.80;;;;;;5029755;28;20022;-47
2023/01/29 05:33:41;;;;;;;21.95;14.75;;;3.60;91.80;;;;;;5024973;28;20026;-46
2023/01/29 05:36:09;;;;;;;22.27;15.35;;;3.60;91.90;;;;;;5030161;28;20029;-47
2023/01/29 05:38:37;;;;;;;20.80;14.48;;;3.60;92.10;;;;;;5014926;28;20030;-47
2023/01/29 05:41:04;;;;;;;23.77;16.92;;;3.50;92.20;;;;;;5010698;28;20038;-47
2023/01/29 05:43:32;;;;;;;21.33;16.23;;;3.50;92.20;;;;;;5021562;28;20038;-43
2023/01/29 05:46:01;;;;;;;22.35;16.63;;;3.50;92.20;;;;;;5037459;28;20540;-50
2023/01/29 05:48:30;;;;;;;25.90;17.55;;;3.50;92.30;;;;;;5036454;28;20033;-47
2023/01/29 05:51:01;;;;;;;26.20;17.67;;;3.50;92.40;;;;;;5014269;28;20033;-46
2023/01/29 05:53:29;;;;;;;26.35;17.80;;;3.50;92.50;;;;;;5031546;28;20032;-49
2023/01/29 05:55:59;;;;;;;24.85;17.55;;;3.50;92.60;;;;;;5030013;28;20030;-45
2023/01/29 05:58:25;;;;;;;29.40;19.20;;;3.50;92.70;;;;;;5024253;28;20033;-49
2023/01/29 06:00:51;;;;;;;28.33;19.00;;;3.50;92.70;;;;;;5020838;28;20080;-44
2023/01/29 06:03:19;;;;;;;31.15;20.42;;;3.50;92.80;;;;;;5032015;28;20431;-45
2023/01/29 06:05:47;;;;;;;35.35;22.48;;;3.50;92.80;;;;;;5022185;28;20040;-47
2023/01/29 06:08:13;;;;;;;39.13;21.75;;;3.50;92.80;;;;;;5027674;28;20033;-49
2023/01/29 06:10:39;;;;;;;35.28;21.38;;;3.50;92.90;;;;;;5014231;28;20168;-47
2023/01/29 06:13:09;;;;;;;27.98;19.33;;;3.50;92.90;;;;;;5017035;28;20145;-47
2023/01/29 06:15:41;;;;;;;29.85;20.85;;;3.50;93.10;;;;;;5035671;28;20358;-49
2023/01/29 06:18:08;;;;;;;33.90;22.50;;;3.50;93.10;;;;;;5024956;28;20025;-48
2023/01/29 06:20:36;;;;;;;29.65;22.48;;;3.50;93.20;;;;;;5030938;28;20048;-45
2023/01/29 06:23:03;;;;;;;30.15;22.17;;;3.60;93.40;;;;;;5032008;28;20047;-45
2023/01/29 06:25:29;;;;;;;38.33;25.40;;;3.60;93.50;;;;;;5035370;28;20025;-45
2023/01/29 06:27:56;;;;;;;35.40;24.58;;;3.60;93.70;;;;;;5019771;28;20037;-46
2023/01/29 06:30:22;;;;;;;34.40;23.15;;;3.60;93.80;;;;;;5035118;28;20485;-46
2023/01/29 06:33:00;;;;;;;33.40;22.85;;;3.70;93.80;;;;;;5034544;28;20026;-46
2023/01/29 06:35:27;;;;;;;35.60;24.83;;;3.70;93.90;;;;;;5032037;28;20100;-44
2023/01/29 06:37:55;;;;;;;33.10;23.17;;;3.70;93.90;;;;;;5024507;28;20037;-45
2023/01/29 06:40:20;;;;;;;32.45;24.00;;;3.80;94.00;;;;;;5049995;28;20087;-46
2023/01/29 06:42:48;;;;;;;33.65;23.77;;;3.80;94.00;;;;;;5032367;28;20017;-47
2023/01/29 06:45:15;;;;;;;34.35;24.60;;;3.80;94.00;;;;;;5026406;28;20037;-44
2023/01/29 06:47:44;;;;;;;30.95;22.77;;;3.80;94.10;;;;;;5034510;28;20031;-43
2023/01/29 06:50:11;;;;;;;33.13;23.60;;;3.80;94.10;;;;;;5032628;28;20048;-46
2023/01/29 06:52:38;;;;;;;33.92;24.30;;;3.80;94.10;;;;;;5032871;28;20040;-46
2023/01/29 06:55:04;;;;;;;33.25;24.42;;;3.90;94.20;;;;;;5032136;28;20025;-44
2023/01/29 06:57:31;;;;;;;33.25;25.23;;;3.90;94.30;;;;;;5038413;28;20029;-43
2023/01/29 06:59:58;;;;;;;34.63;23.88;;;3.90;94.30;;;;;;5028180;28;20018;-45
2023/01/29 07:02:25;;;;;;;32.15;23.63;;;3.90;94.30;;;;;;5023864;28;20037;-43
2023/01/29 07:04:52;;;;;;;31.67;23.38;;;3.90;94.30;;;;;;5027483;28;20026;-44
2023/01/29 07:07:18;;;;;;;31.50;21.55;;;3.90;94.40;;;;;;5033781;28;20631;-44
2023/01/29 07:09:45;;;;;;;32.83;21.55;;;3.90;94.40;;;;;;5034214;28;20053;-43
2023/01/29 07:12:12;;;;;;;28.85;23.05;;;3.90;94.50;;;;;;5028916;28;20079;-44
2023/01/29 07:14:38;;;;;;;31.45;21.63;;;3.90;94.50;;;;;;5015360;28;20068;-43
2023/01/29 07:17:08;;;;;;;28.27;20.27;;;3.90;94.50;;;;;;5025598;28;20040;-45
2023/01/29 07:19:35;;;;;;;31.42;21.83;;;3.90;94.50;;;;;;5027002;28;20044;-47
2023/01/29 07:22:02;;;;;;;29.98;20.83;;;3.90;94.50;;;;;;5033040;28;20041;-45
2023/01/29 07:24:31;;;;;;;32.38;22.83;;;3.90;94.60;;;;;;5030079;28;20064;-46
2023/01/29 07:26:58;;;;;;;30.17;21.90;;;3.90;94.60;;;;;;5030203;28;20040;-44
2023/01/29 07:29:25;;;;;;;31.50;21.83;;;4.00;94.70;;;;;;5015705;28;20072;-44
2023/01/29 07:31:52;;;;;;;30.98;21.52;;;3.90;94.70;;;;;;5019618;28;20037;-49
2023/01/29 07:34:17;;;;;;;36.47;23.35;;;4.00;94.70;;;;;;5032099;28;20021;-44
2023/01/29 07:36:44;;;;;;;36.45;24.67;;;4.10;94.80;;;;;;5032576;28;20044;-44
2023/01/29 07:39:10;;;;;;;37.17;24.50;;;4.10;94.80;;;;;;5028271;28;20614;-44
2023/01/29 07:41:36;;;;;;;36.38;24.40;;;4.10;94.80;;;;;;5023615;28;20029;-44
2023/01/29 07:44:03;;;;;;;38.75;24.73;;;4.10;94.70;;;;;;5030679;28;20612;-43
2023/01/29 07:46:32;;;;;;;40.53;24.50;;;4.00;94.70;;;;;;5026545;28;20444;-43
2023/01/29 07:48:58;;;;;;;41.08;25.98;;;4.10;94.70;;;;;;5024789;28;20037;-46
2023/01/29 07:51:26;;;;;;;40.58;25.75;;;4.00;94.70;;;;;;5028896;28;20025;-44
2023/01/29 07:53:53;;;;;;;37.83;26.33;;;4.10;94.70;;;;;;5028113;28;20025;-45
2023/01/29 07:56:21;;;;;;;41.53;25.33;;;4.10;94.70;;;;;;5016225;28;20026;-47
2023/01/29 07:58:46;;;;;;;43.60;26.67;;;4.10;94.80;;;;;;5027833;28;20021;-49
2023/01/29 08:01:13;;;;;;;41.22;27.92;;;4.10;94.80;;;;;;5029661;28;20041;-57
2023/01/29 08:03:42;;;;;;;41.33;26.33;;;4.10;94.70;;;;;;5025848;28;20040;-52
2023/01/29 08:06:09;;;;;;;44.08;27.25;;;4.00;94.70;;;;;;5031897;28;20128;-53
2023/01/29 08:08:37;;;;;;;45.63;28.58;;;4.10;94.80;;;;;;5012167;28;20160;-53
2023/01/29 08:11:04;;;;;;;42.63;27.55;;;4.10;94.70;;;;;;5028362;28;20053;-51
2023/01/29 08:13:33;;;;;;;38.17;26.25;;;4.10;94.70;;;;;;5030707;28;20048;-52
2023/01/29 08:16:02;;;;;;;44.95;28.10;;;4.10;94.80;;;;;;5012004;28;20025;-53
2023/01/29 08:18:30;;;;;;;40.70;26.17;;;4.10;94.80;;;;;;5031523;28;20055;-54
2023/01/29 08:21:05;;;;;;;47.22;27.65;;;4.10;94.80;;;;;;5032737;28;20029;-55
2023/01/29 08:23:30;;;;;;;42.70;26.60;;;4.10;94.80;;;;;;5030887;28;20071;-54
2023/01/29 08:25:57;;;;;;;37.22;26.38;;;4.10;94.80;;;;;;5031414;28;20052;-51
2023/01/29 08:28:25;;;;;;;39.65;26.38;;;4.10;94.80;;;;;;5028320;28;20037;-50
2023/01/29 08:30:52;;;;;;;39.75;26.55;;;4.10;94.80;;;;;;5028617;28;20029;-52
2023/01/29 08:33:20;;;;;;;38.22;26.65;;;4.10;94.80;;;;;;5004348;28;20037;-51
2023/01/29 08:35:51;;;;;;;41.33;26.77;;;4.10;94.80;;;;;;5030592;28;20029;-50
2023/01/29 08:38:19;;;;;;;41.40;25.85;;;4.10;94.80;;;;;;5028399;28;20032;-53
2023/01/29 08:40:47;;;;;;;39.10;25.60;;;4.10;94.80;;;;;;5031939;28;20029;-49
2023/01/29 08:43:14;;;;;;;40.40;25.92;;;4.10;94.80;;;;;;5036336;28;20040;-48
2023/01/29 08:45:42;;;;;;;41.15;26.63;;;4.20;94.90;;;;;;5017312;28;20033;-49
2023/01/29 08:48:09;;;;;;;37.67;26.30;;;4.10;94.80;;;;;;5011365;28;20056;-48
2023/01/29 08:50:37;;;;;;;38.95;25.45;;;4.10;94.90;;;;;;5021250;28;20030;-50
2023/01/29 08:53:06;;;;;;;39.05;25.95;;;4.10;94.80;;;;;;5025477;28;20052;-48
2023/01/29 08:55:36;;;;;;;41.08;26.33;;;4.20;94.80;;;;;;5031904;28;20566;-48
2023/01/29 08:58:04;;;;;;;41.38;27.20;;;4.10;94.80;;;;;;5015638;28;20048;-52
2023/01/29 09:00:33;;;;;;;44.63;27.83;;;4.20;94.80;;;;;;5011963;28;20025;-48
2023/01/29 09:02:59;;;;;;;43.08;27.65;;;4.20;94.70;;;;;;5013550;28;20144;-50
2023/01/29 09:05:27;;;;;;;40.55;26.05;;;4.20;94.70;;;;;;5032576;28;20053;-50
2023/01/29 09:07:57;;;;;;;38.67;25.52;;;4.20;94.70;;;;;;5031656;28;20034;-49
2023/01/29 09:10:23;;;;;;;53.83;27.98;;;4.20;94.70;;;;;;5032222;28;20350;-50
2023/01/29 09:12:49;;;;;;;45.63;29.08;;;4.20;94.60;;;;;;5026904;28;20042;-47
2023/01/29 09:15:23;;;;;;;40.40;27.33;;;4.30;94.70;;;;;;5012376;28;20074;-49
2023/01/29 09:17:51;;;;;;;47.60;29.02;;;4.40;94.70;;;;;;5014150;28;20096;-52
2023/01/29 09:20:18;;;;;;;42.33;29.10;;;4.40;94.60;;;;;;5025383;28;20605;-50
2023/01/29 09:22:52;;;;;;;42.47;28.83;;;4.50;94.60;;;;;;5030877;28;20082;-50
2023/01/29 09:25:19;;;;;;;43.72;29.02;;;4.50;94.50;;;;;;5024051;28;20128;-53
2023/01/29 09:27:45;;;;;;;35.47;26.27;;;4.50;94.40;;;;;;5031834;28;20083;-47
2023/01/29 09:30:13;;;;;;;38.42;27.27;;;4.60;94.30;;;;;;5027671;28;20836;-48
2023/01/29 09:32:43;;;;;;;39.83;26.90;;;4.60;94.20;;;;;;5015427;28;20344;-49
2023/01/29 09:35:10;;;;;;;39.00;27.52;;;4.70;94.00;;;;;;5014314;28;20093;-49
2023/01/29 09:37:37;;;;;;;38.22;26.25;;;4.70;94.10;;;;;;5018288;28;20036;-50
2023/01/29 09:40:06;;;;;;;39.00;25.77;;;4.80;93.90;;;;;;5029662;28;20079;-53
2023/01/29 09:42:55;;;;;;;45.03;28.45;;;4.90;94.20;;;;;;5023803;28;20065;-48
2023/01/29 09:45:24;;;;;;;39.55;27.70;;;4.90;93.70;;;;;;5013647;28;20081;-50
2023/01/29 09:47:52;;;;;;;38.40;27.15;;;5.00;93.70;;;;;;5022590;28;20037;-52
2023/01/29 09:50:43;;;;;;;39.58;27.42;;;5.00;93.40;;;;;;5032012;28;20385;-48
2023/01/29 09:53:28;;;;;;;36.03;27.10;;;4.90;93.40;;;;;;5028486;28;20046;-51
2023/01/29 09:56:08;;;;;;;32.17;24.42;;;5.00;93.20;;;;;;5039982;28;20021;-50
2023/01/29 09:58:39;;;;;;;38.30;26.27;;;4.90;92.90;;;;;;5035159;28;20451;-51
2023/01/29 10:01:31;;;;;;;35.17;27.17;;;4.90;92.90;;;;;;4998869;28;20030;-51
2023/01/29 10:04:26;;;;;;;33.78;26.40;;;4.90;92.80;;;;;;5015766;28;20038;-51
2023/01/29 10:07:29;;;;;;;34.70;25.23;;;4.90;92.80;;;;;;5024851;28;20030;-50
2023/01/29 10:10:17;;;;;;;32.80;24.90;;;4.80;92.70;;;;;;5038561;28;20024;-51
2023/01/29 10:13:19;;;;;;;33.88;27.52;;;4.80;92.80;;;;;;5029025;28;20233;-55
2023/01/29 10:16:06;;;;;;;34.83;26.58;;;4.70;92.90;;;;;;5034942;28;20014;-56
2023/01/29 10:18:53;;;;;;;37.00;26.35;;;4.70;93.00;;;;;;5034429;28;20029;-53
2023/01/29 10:21:56;;;;;;;37.95;25.95;;;4.70;93.10;;;;;;5018958;28;20079;-49
2023/01/29 10:24:58;;;;;;;38.25;26.40;;;4.70;93.20;;;;;;5030004;28;20033;-53
2023/01/29 10:27:30;;;;;;;38.20;25.48;;;4.70;93.30;;;;;;5021596;28;20111;-50
2023/01/29 10:29:58;;;;;;;33.75;26.20;;;4.70;93.40;;;;;;5032661;28;20026;-51
2023/01/29 10:32:28;;;;;;;40.55;29.48;;;4.70;93.40;;;;;;5033851;28;20091;-57
2023/01/29 10:35:20;;;;;;;35.88;26.83;;;4.70;93.50;;;;;;5031950;28;20029;-50
2023/01/29 10:37:53;;;;;;;36.05;28.83;;;4.80;93.50;;;;;;5022536;28;20065;-50
2023/01/29 10:40:44;;;;;;;36.78;28.60;;;4.70;93.50;;;;;;5033093;28;20025;-53
2023/01/29 10:43:23;;;;;;;38.08;29.05;;;4.60;93.40;;;;;;5018790;28;20075;-51
2023/01/29 10:46:39;;;;;;;37.20;29.20;;;4.60;93.50;;;;;;5023839;28;20017;-49
2023/01/29 10:49:40;;;;;;;37.45;29.05;;;4.70;93.50;;;;;;5000625;28;20379;-49
2023/01/29 10:52:39;;;;;;;37.40;28.50;;;4.70;93.60;;;;;;5014869;28;20072;-48
2023/01/29 10:55:40;;;;;;;37.90;29.02;;;4.70;93.60;;;;;;5029518;28;20048;-48
2023/01/29 10:58:24;;;;;;;37.15;27.38;;;4.80;93.50;;;;;;5032200;28;20036;-48
2023/01/29 11:00:56;;;;;;;34.75;27.02;;;4.80;93.50;;;;;;5033839;28;21997;-50
2023/01/29 11:03:40;;;;;;;38.53;29.25;;;4.80;93.40;;;;;;5029026;28;20342;-50
2023/01/29 11:06:22;;;;;;;41.22;28.88;;;4.80;93.50;;;;;;5040494;28;20025;-47
2023/01/29 11:09:27;;;;;;;37.65;27.42;;;4.80;93.50;;;;;;5021329;28;20426;-49
2023/01/29 11:12:04;;;;;;;39.08;29.45;;;4.80;93.50;;;;;;5033747;28;20054;-47
2023/01/29 11:15:02;;;;;;;39.75;28.15;;;4.70;93.20;;;;;;5032975;28;20171;-50
2023/01/29 11:17:29;;;;;;;41.83;30.98;;;4.80;93.40;;;;;;5030683;28;20030;-48
2023/01/29 11:19:57;;;;;;;42.33;29.92;;;4.90;93.50;;;;;;5033233;28;20060;-50
2023/01/29 11:22:24;;;;;;;40.65;30.48;;;5.00;93.40;;;;;;5034299;28;20074;-47
2023/01/29 11:25:23;;;;;;;36.45;29.33;;;5.10;93.30;;;;;;5028070;28;20022;-47
2023/01/29 11:27:53;;;;;;;36.55;28.92;;;5.20;93.10;;;;;;5028113;28;20045;-48
2023/01/29 11:30:26;;;;;;;38.80;29.63;;;5.20;93.00;;;;;;5024567;28;20135;-47
2023/01/29 11:33:04;;;;;;;39.25;30.27;;;5.20;92.70;;;;;;5031023;28;20052;-48
2023/01/29 11:35:34;;;;;;;35.75;27.83;;;5.20;92.60;;;;;;5033686;28;20021;-48
2023/01/29 11:38:26;;;;;;;41.13;31.50;;;5.20;92.60;;;;;;5030152;28;20378;-47
2023/01/29 11:41:14;;;;;;;38.95;28.25;;;5.20;92.70;;;;;;5012844;28;20030;-47
2023/01/29 11:43:40;;;;;;;38.08;27.70;;;5.20;92.40;;;;;;5027905;28;20025;-48
2023/01/29 11:46:13;;;;;;;36.67;29.48;;;5.20;92.50;;;;;;5031387;28;20108;-46
2023/01/29 11:48:44;;;;;;;38.58;27.80;;;5.20;92.60;;;;;;5014637;28;21350;-50
2023/01/29 11:51:19;;;;;;;35.35;28.55;;;5.30;92.60;;;;;;5035588;28;20104;-48
2023/01/29 11:53:54;;;;;;;35.00;28.45;;;5.40;92.60;;;;;;5028774;28;20037;-46
2023/01/29 11:56:27;;;;;;;36.60;28.38;;;5.40;92.60;;;;;;5032381;28;20031;-50
2023/01/29 11:58:56;;;;;;;34.70;25.90;;;5.50;92.40;;;;;;5029029;28;20053;-50
2023/01/29 12:01:38;;;;;;;36.47;27.40;;;5.50;92.30;;;;;;5024244;28;20029;-51
2023/01/29 12:04:22;;;;;;;31.27;26.30;;;5.40;92.20;;;;;;5029860;28;20091;-48
2023/01/29 12:06:52;;;;;;;33.42;25.73;;;5.40;92.30;;;;;;5032067;28;20036;-50
2023/01/29 12:09:26;;;;;;;35.03;26.83;;;5.30;92.30;;;;;;5029357;28;20108;-48
2023/01/29 12:12:15;;;;;;;36.35;26.98;;;5.40;92.40;;;;;;5027103;28;20100;-48
2023/01/29 12:14:43;;;;;;;34.92;27.20;;;5.40;92.70;;;;;;5009621;28;20508;-52
2023/01/29 12:17:22;;;;;;;31.33;26.35;;;5.30;92.20;;;;;;5021706;28;20106;-48
2023/01/29 12:19:56;;;;;;;34.35;27.13;;;5.40;92.40;;;;;;5021759;28;20077;-52
2023/01/29 12:22:46;;;;;;;34.53;25.02;;;5.30;92.30;;;;;;5026874;28;20029;-50
2023/01/29 12:25:43;;;;;;;38.67;26.83;;;5.40;92.50;;;;;;5022861;28;20025;-54
2023/01/29 12:28:36;;;;;;;31.25;24.23;;;5.30;92.00;;;;;;5026634;28;20025;-52
2023/01/29 12:31:35;;;;;;;34.53;25.75;;;5.30;92.20;;;;;;5028568;28;20104;-50
2023/01/29 12:34:18;;;;;;;31.70;24.13;;;5.30;92.20;;;;;;5020920;28;20741;-52
2023/01/29 12:36:55;;;;;;;35.58;25.35;;;5.20;92.30;;;;;;5015596;28;20467;-50
2023/01/29 12:39:21;;;;;;;31.42;23.80;;;5.20;92.40;;;;;;5020685;28;20065;-50
2023/01/29 12:42:13;;;;;;;35.30;24.48;;;5.10;92.40;;;;;;5022807;28;20049;-48
2023/01/29 12:45:16;;;;;;;31.08;24.15;;;5.20;92.50;;;;;;5011703;28;20018;-52
2023/01/29 12:47:49;;;;;;;35.17;24.52;;;5.20;92.60;;;;;;5016273;28;20033;-50
2023/01/29 12:50:22;;;;;;;34.17;23.90;;;5.20;92.60;;;;;;5012362;28;20478;-51
2023/01/29 12:52:51;;;;;;;36.60;27.45;;;5.20;92.70;;;;;;5013715;28;20072;-55
2023/01/29 12:55:39;;;;;;;32.35;23.73;;;5.10;92.80;;;;;;5015895;28;20045;-53
2023/01/29 12:58:13;;;;;;;31.63;23.60;;;5.20;92.90;;;;;;5022561;28;20026;-55
2023/01/29 13:00:48;;;;;;;29.95;22.88;;;5.20;93.10;;;;;;4985684;28;20132;-51
2023/01/29 13:04:06;;;;;;;32.95;24.65;;;5.20;93.00;;;;;;5021042;28;20080;-53
2023/01/29 13:06:41;;;;;;;33.40;23.08;;;5.20;93.10;;;;;;5023116;28;20363;-55
2023/01/29 13:09:14;;;;;;;28.27;21.38;;;5.10;93.10;;;;;;5031123;28;20033;-52
2023/01/29 13:12:04;;;;;;;30.30;21.80;;;5.10;93.10;;;;;;5029908;28;20060;-52
2023/01/29 13:14:59;;;;;;;32.67;23.20;;;5.00;93.20;;;;;;5017541;28;20120;-50
2023/01/29 13:17:54;;;;;;;30.67;22.60;;;5.10;93.30;;;;;;5026297;28;20026;-52
2023/01/29 13:20:30;;;;;;;32.63;23.42;;;5.10;93.40;;;;;;5013349;28;20092;-50
2023/01/29 13:23:29;;;;;;;30.75;24.25;;;5.10;93.60;;;;;;5028843;28;20521;-49
2023/01/29 13:25:57;;;;;;;31.13;22.20;;;5.20;93.60;;;;;;5032350;28;20328;-54
2023/01/29 13:28:26;;;;;;;33.40;23.65;;;5.20;93.30;;;;;;5034387;28;20120;-53
2023/01/29 13:31:23;;;;;;;34.00;23.15;;;5.20;93.40;;;;;;5036404;28;20059;-53
2023/01/29 13:33:58;;;;;;;31.10;23.95;;;5.10;93.30;;;;;;5036232;28;20045;-56
2023/01/29 13:36:31;;;;;;;30.77;21.30;;;5.20;93.40;;;;;;5041153;28;20162;-54
2023/01/29 13:39:21;;;;;;;31.17;23.20;;;5.20;93.50;;;;;;5024957;28;20511;-56
2023/01/29 13:41:49;;;;;;;32.33;21.75;;;5.20;93.50;;;;;;5023100;28;20044;-56
2023/01/29 13:44:25;;;;;;;32.20;22.40;;;5.20;93.60;;;;;;5029462;28;20108;-56
2023/01/29 13:47:07;;;;;;;32.72;22.73;;;5.20;93.60;;;;;;5030268;28;20025;-59
2023/01/29 13:50:09;;;;;;;32.55;22.77;;;5.20;93.50;;;;;;5030577;28;20041;-55